NCAR-RAP Real-Time Weather Data

Output produced by METARs form (21 December 2014  12:07 UTC)
found at http://weather.rap.ucar.edu/surface/
 
Conditions at: KALB observed 21 December 2014  11:51 UTC
Temperature: -2.8°C (27°F)
Dewpoint: -6.7°C (20°F) [RH = 74%]
Pressure (altimeter): 30.33 inches Hg (1027.2 mb)
[Sea-level pressure: 1027.4 mb]
Winds: from the ENE (60 degrees) at 5 MPH (4 knots; 2.1 m/s)
Visibility: 10 or more miles (16+ km)
Ceiling: 2700 feet AGL
Clouds: scattered clouds at 2100 feet AGL
overcast cloud deck at 2700 feet AGL
Present Weather: -SN  (light snow)
KALB 211151Z 06004KT 10SM -SN SCT021 OVC027 M03/M07 A3033 RMK AO2 SLP274 4/001 P0000 60000 T10281067 11022 21028 53007

Conditions at: KALB observed 21 December 2014  10:51 UTC
Temperature: -2.2°C (28°F)
Dewpoint: -6.7°C (20°F) [RH = 71%]
Pressure (altimeter): 30.32 inches Hg (1026.8 mb)
[Sea-level pressure: 1027.0 mb]
Winds: from the NNE (20 degrees) at 3 MPH (3 knots; 1.6 m/s)
Visibility: 10 or more miles (16+ km)
Ceiling: 2800 feet AGL
Clouds: scattered clouds at 2100 feet AGL
broken clouds at 2800 feet AGL
overcast cloud deck at 3800 feet AGL
Present Weather: -SN  (light snow)
KALB 211051Z 02003KT 10SM -SN SCT021 BKN028 OVC038 M02/M07 A3032 RMK AO2 SLP270 P0000 T10221067

Conditions at: KALB observed 21 December 2014  09:51 UTC
Temperature: -2.2°C (28°F)
Dewpoint: -6.7°C (20°F) [RH = 71%]
Pressure (altimeter): 30.31 inches Hg (1026.5 mb)
[Sea-level pressure: 1026.8 mb]
Winds: calm
Visibility: 10 or more miles (16+ km)
Ceiling: 3000 feet AGL
Clouds: scattered clouds at 2100 feet AGL
broken clouds at 3000 feet AGL
overcast cloud deck at 3900 feet AGL
Present Weather: -SN  (light snow)
KALB 210951Z 00000KT 10SM -SN SCT021 BKN030 OVC039 M02/M07 A3031 RMK AO2 SLP268 PCPN VRY LGT P0000 T10221067

Conditions at: KALB observed 21 December 2014  08:51 UTC
Temperature: -2.2°C (28°F)
Dewpoint: -6.7°C (20°F) [RH = 71%]
Pressure (altimeter): 30.31 inches Hg (1026.5 mb)
[Sea-level pressure: 1026.7 mb]
Winds: from the N (360 degrees) at 5 MPH (4 knots; 2.1 m/s)
Visibility: 10 or more miles (16+ km)
Ceiling: 3500 feet AGL
Clouds: scattered clouds at 2200 feet AGL
overcast cloud deck at 3500 feet AGL
Present Weather: -SN  (light snow)
KALB 210851Z 36004KT 10SM -SN SCT022 OVC035 M02/M07 A3031 RMK AO2 SLP267 P0000 60000 T10221067 58002

Conditions at: KALB observed 21 December 2014  08:46 UTC
Temperature: -2.0°C (28°F)
Dewpoint: -7.0°C (19°F) [RH = 69%]
Pressure (altimeter): 30.31 inches Hg (1026.5 mb)
Winds: from the N (350 degrees) at 6 MPH (5 knots; 2.6 m/s)
Visibility: 10 or more miles (16+ km)
Ceiling: 3500 feet AGL
Clouds: scattered clouds at 2200 feet AGL
overcast cloud deck at 3500 feet AGL
Present Weather: -SN  (light snow)
KALB 210846Z 35005KT 10SM -SN SCT022 OVC035 M02/M07 A3031 RMK AO2 P0000

Conditions at: KALB observed 21 December 2014  07:51 UTC
Temperature: -2.2°C (28°F)
Dewpoint: -7.2°C (19°F) [RH = 69%]
Pressure (altimeter): 30.31 inches Hg (1026.5 mb)
[Sea-level pressure: 1026.9 mb]
Winds: from the NNE (20 degrees) at 5 MPH (4 knots; 2.1 m/s)
Visibility: 10 or more miles (16+ km)
Ceiling: 2300 feet AGL
Clouds: broken clouds at 2300 feet AGL
overcast cloud deck at 3500 feet AGL
Present Weather: -SN  (light snow)
KALB 210751Z 02004KT 10SM -SN BKN023 OVC035 M02/M07 A3031 RMK AO2 SLP269 BKN V SCT P0000 T10221072

Conditions at: KALB observed 21 December 2014  07:45 UTC
Temperature: -2.0°C (28°F)
Dewpoint: -7.0°C (19°F) [RH = 69%]
Pressure (altimeter): 30.31 inches Hg (1026.5 mb)
Winds: from the N (10 degrees) at 6 MPH (5 knots; 2.6 m/s)
Visibility: 10 or more miles (16+ km)
Ceiling: 2300 feet AGL
Clouds: broken clouds at 2300 feet AGL
overcast cloud deck at 3500 feet AGL
Present Weather: -SN  (light snow)
KALB 210745Z 01005KT 10SM -SN BKN023 OVC035 M02/M07 A3031 RMK AO2 BKN V SCT P0000

Conditions at: KALB observed 21 December 2014  07:34 UTC
Temperature: -2.2°C (28°F)
Dewpoint: -7.2°C (19°F) [RH = 69%]
Pressure (altimeter): 30.32 inches Hg (1026.8 mb)
Winds: from the NNE (20 degrees) at 7 MPH (6 knots; 3.1 m/s)
Visibility: 10 or more miles (16+ km)
Ceiling: 3500 feet AGL
Clouds: scattered clouds at 2300 feet AGL
overcast cloud deck at 3500 feet AGL
Present Weather: -SN  (light snow)
KALB 210734Z 02006KT 10SM -SN SCT023 OVC035 M02/M07 A3032 RMK AO2 SCT V BKN P0000 T10221072

Conditions at: KALB observed 21 December 2014  06:51 UTC
Temperature: -2.2°C (28°F)
Dewpoint: -6.7°C (20°F) [RH = 71%]
Pressure (altimeter): 30.32 inches Hg (1026.8 mb)
[Sea-level pressure: 1027.0 mb]
Winds: from the NNW (340 degrees) at 3 MPH (3 knots; 1.6 m/s)
Visibility: 10 or more miles (16+ km)
Ceiling: 2300 feet AGL
Clouds: overcast cloud deck at 2300 feet AGL
Present Weather: -SN  (light snow)
KALB 210651Z COR 34003KT 10SM -SN OVC023 M02/M07 A3032 RMK AO2 SNB48 SLP270 PCPN VRY LGT P0000 T10221067

Conditions at: KALB observed 21 December 2014  05:51 UTC
Temperature: -2.2°C (28°F)
Dewpoint: -7.2°C (19°F) [RH = 69%]
Pressure (altimeter): 30.30 inches Hg (1026.2 mb)
[Sea-level pressure: 1026.5 mb]
Winds: from the NNW (340 degrees) at 3 MPH (3 knots; 1.6 m/s)
Visibility: 10 or more miles (16+ km)
Ceiling: 2600 feet AGL
Clouds: broken clouds at 2600 feet AGL
overcast cloud deck at 3100 feet AGL
Present Weather: no significant weather observed at this time
KALB 210551Z 34003KT 10SM BKN026 OVC031 M02/M07 A3030 RMK AO2 SLP265 4/001 T10221072 11017 21028 56007

Conditions at: KALB observed 21 December 2014  05:44 UTC
Temperature: -2.8°C (27°F)
Dewpoint: -7.2°C (19°F) [RH = 72%]
Pressure (altimeter): 30.30 inches Hg (1026.2 mb)
Winds: calm
Visibility: 10 or more miles (16+ km)
Ceiling: 2600 feet AGL
Clouds: broken clouds at 2600 feet AGL
overcast cloud deck at 3100 feet AGL
Present Weather: no significant weather observed at this time
KALB 210544Z 00000KT 10SM BKN026 OVC031 M03/M07 A3030 RMK AO2 BKN V SCT T10281072

Conditions at: KALB observed 21 December 2014  05:04 UTC
Temperature: -2.2°C (28°F)
Dewpoint: -7.2°C (19°F) [RH = 69%]
Pressure (altimeter): 30.30 inches Hg (1026.2 mb)
Winds: from the N (10 degrees) at 6 MPH (5 knots; 2.6 m/s)
Visibility: 10 or more miles (16+ km)
Ceiling: 3100 feet AGL
Clouds: overcast cloud deck at 3100 feet AGL
Present Weather: no significant weather observed at this time
KALB 210504Z 01005KT 10SM OVC031 M02/M07 A3030 RMK AO2 T10221072

Conditions at: KALB observed 21 December 2014  04:51 UTC
Temperature: -2.2°C (28°F)
Dewpoint: -7.2°C (19°F) [RH = 69%]
Pressure (altimeter): 30.30 inches Hg (1026.2 mb)
[Sea-level pressure: 1026.5 mb]
Winds: from the N (10 degrees) at 6 MPH (5 knots; 2.6 m/s)
Visibility: 10 or more miles (16+ km)
Ceiling: 2900 feet AGL
Clouds: overcast cloud deck at 2900 feet AGL
Present Weather: no significant weather observed at this time
KALB 210451Z 01005KT 10SM OVC029 M02/M07 A3030 RMK AO2 SLP265 T10221072 410111050

Conditions at: KALB observed 21 December 2014  04:29 UTC
Temperature: -2.2°C (28°F)
Dewpoint: -6.7°C (20°F) [RH = 71%]
Pressure (altimeter): 30.31 inches Hg (1026.5 mb)
Winds: from the N (10 degrees) at 5 MPH (4 knots; 2.1 m/s)
Visibility: 10 or more miles (16+ km)
Ceiling: 2900 feet AGL
Clouds: overcast cloud deck at 2900 feet AGL
Present Weather: no significant weather observed at this time
KALB 210429Z 01004KT 10SM OVC029 M02/M07 A3031 RMK AO2 T10221067

Conditions at: KALB observed 21 December 2014  03:51 UTC
Temperature: -2.2°C (28°F)
Dewpoint: -6.7°C (20°F) [RH = 71%]
Pressure (altimeter): 30.32 inches Hg (1026.8 mb)
[Sea-level pressure: 1027.1 mb]
Winds: from the N (10 degrees) at 5 MPH (4 knots; 2.1 m/s)
Visibility: 10 or more miles (16+ km)
Ceiling: 3200 feet AGL
Clouds: overcast cloud deck at 3200 feet AGL
Present Weather: no significant weather observed at this time
KALB 210351Z 01004KT 10SM OVC032 M02/M07 A3032 RMK AO2 SLP271 T10221067

Conditions at: KALB observed 21 December 2014  02:51 UTC
Temperature: -2.2°C (28°F)
Dewpoint: -7.2°C (19°F) [RH = 69%]
Pressure (altimeter): 30.32 inches Hg (1026.8 mb)
[Sea-level pressure: 1027.3 mb]
Winds: from the N (360 degrees) at 3 MPH (3 knots; 1.6 m/s)
Visibility: 10 or more miles (16+ km)
Ceiling: 3800 feet AGL
Clouds: overcast cloud deck at 3800 feet AGL
Present Weather: no significant weather observed at this time
KALB 210251Z 36003KT 10SM OVC038 M02/M07 A3032 RMK AO2 SLP273 T10221072 53002

Conditions at: KALB observed 21 December 2014  01:51 UTC
Temperature: -2.2°C (28°F)
Dewpoint: -7.2°C (19°F) [RH = 69%]
Pressure (altimeter): 30.31 inches Hg (1026.5 mb)
[Sea-level pressure: 1026.9 mb]
Winds: from the N (350 degrees) at 5 MPH (4 knots; 2.1 m/s)
Visibility: 10 or more miles (16+ km)
Ceiling: 4100 feet AGL
Clouds: broken clouds at 4100 feet AGL
overcast cloud deck at 7000 feet AGL
Present Weather: no significant weather observed at this time
KALB 210151Z 35004KT 10SM BKN041 OVC070 M02/M07 A3031 RMK AO2 SLP269 T10221072

Conditions at: KALB observed 21 December 2014  00:51 UTC
Temperature: -2.2°C (28°F)
Dewpoint: -6.7°C (20°F) [RH = 71%]
Pressure (altimeter): 30.31 inches Hg (1026.5 mb)
[Sea-level pressure: 1027.0 mb]
Winds: from the N (350 degrees) at 3 MPH (3 knots; 1.6 m/s)
Visibility: 10 or more miles (16+ km)
Ceiling: 4100 feet AGL
Clouds: broken clouds at 4100 feet AGL
overcast cloud deck at 7000 feet AGL
Present Weather: no significant weather observed at this time
KALB 210051Z 35003KT 10SM BKN041 OVC070 M02/M07 A3031 RMK AO2 SLP270 T10221067